createdAt,value
2017-06-22T00:00:50.600Z,55.80
2017-06-22T00:03:18.233Z,55.70
2017-06-22T00:05:45.900Z,56.20
2017-06-22T00:08:13.542Z,55.60
2017-06-22T00:10:41.651Z,56.50
2017-06-22T00:13:10.058Z,55.90
2017-06-22T00:15:37.699Z,55.70
2017-06-22T00:18:05.368Z,55.90
2017-06-22T00:20:33.012Z,56.00
2017-06-22T00:23:01.055Z,56.20
2017-06-22T00:25:28.679Z,56.90
2017-06-22T00:27:56.301Z,57.40
2017-06-22T00:30:24.721Z,57.50
2017-06-22T00:32:52.360Z,57.50
2017-06-22T00:35:20.315Z,58.30
2017-06-22T00:37:47.949Z,57.60
2017-06-22T00:40:15.575Z,57.40
2017-06-22T00:42:43.227Z,57.50
2017-06-22T00:45:10.852Z,57.80
2017-06-22T00:47:39.553Z,58.20
2017-06-22T00:50:07.181Z,58.10
2017-06-22T00:52:34.816Z,58.00
2017-06-22T00:55:03.247Z,58.00
2017-06-22T00:57:30.872Z,57.90
2017-06-22T00:59:58.808Z,58.80
2017-06-22T01:02:26.445Z,58.80
2017-06-22T01:04:54.073Z,59.30
2017-06-22T01:07:22.498Z,58.00
2017-06-22T01:09:50.132Z,57.90
2017-06-22T01:12:18.075Z,58.40
2017-06-22T01:14:45.713Z,58.30
2017-06-22T01:17:13.343Z,58.70
2017-06-22T01:19:41.017Z,58.60
2017-06-22T01:22:08.661Z,57.60
2017-06-22T01:24:36.606Z,58.20
2017-06-22T01:27:04.233Z,58.10
2017-06-22T01:29:31.861Z,58.40
2017-06-22T01:32:00.281Z,58.20
2017-06-22T01:34:27.918Z,58.10
2017-06-22T01:36:55.884Z,58.10
2017-06-22T01:39:23.512Z,58.60
2017-06-22T01:41:51.139Z,58.70
2017-06-22T01:44:18.800Z,58.80
2017-06-22T01:46:46.427Z,59.10
2017-06-22T01:49:14.374Z,59.30
2017-06-22T01:51:42.769Z,59.80
2017-06-22T01:54:10.413Z,59.80
2017-06-22T01:56:38.068Z,59.80
2017-06-22T01:59:05.705Z,59.80
2017-06-22T02:01:33.661Z,59.80
2017-06-22T02:04:01.310Z,60.30
2017-06-22T02:06:28.950Z,60.00
2017-06-22T02:08:56.617Z,60.20
2017-06-22T02:11:24.263Z,60.20
2017-06-22T02:13:52.222Z,60.40
2017-06-22T02:16:19.860Z,60.70
2017-06-22T02:18:47.480Z,59.90
2017-06-22T02:21:15.135Z,59.70
2017-06-22T02:23:42.765Z,60.90
2017-06-22T02:26:10.684Z,60.60
2017-06-22T02:28:38.306Z,61.60
2017-06-22T02:31:05.952Z,61.60
2017-06-22T02:33:33.613Z,62.10
2017-06-22T02:36:01.259Z,62.00
2017-06-22T02:38:29.180Z,61.70
2017-06-22T02:40:56.829Z,62.30
2017-06-22T02:43:24.501Z,61.10
2017-06-22T02:45:52.278Z,61.00
2017-06-22T02:48:20.700Z,60.30
2017-06-22T02:50:48.660Z,60.30
2017-06-22T02:53:16.290Z,59.60
2017-06-22T02:55:43.916Z,59.50
2017-06-22T02:58:11.584Z,60.00
2017-06-22T03:00:39.211Z,61.00
2017-06-22T03:03:07.207Z,61.00
2017-06-22T03:05:34.836Z,60.90
2017-06-22T03:08:10.789Z,61.40
2017-06-22T03:10:38.438Z,62.10
2017-06-22T03:13:06.077Z,62.40
2017-06-22T03:15:33.741Z,62.20
2017-06-22T03:18:01.377Z,62.20
2017-06-22T03:20:29.322Z,62.40
2017-06-22T03:22:56.953Z,62.10
2017-06-22T03:25:24.575Z,62.00
2017-06-22T03:27:53.032Z,62.10
2017-06-22T03:30:20.673Z,62.00
2017-06-22T03:32:49.401Z,63.10
2017-06-22T03:35:17.077Z,63.00
2017-06-22T03:37:44.717Z,61.90
2017-06-22T03:40:12.393Z,62.70
2017-06-22T03:42:40.025Z,62.30
2017-06-22T03:45:08.739Z,62.70
2017-06-22T03:47:36.372Z,62.00
2017-06-22T03:50:04.023Z,61.70
2017-06-22T03:52:31.705Z,62.00
2017-06-22T03:54:59.327Z,62.00
2017-06-22T03:57:27.303Z,61.60
2017-06-22T03:59:54.932Z,60.90
2017-06-22T04:02:22.547Z,60.90
2017-06-22T04:04:50.246Z,61.20
2017-06-22T04:07:17.879Z,61.00
2017-06-22T04:09:45.814Z,60.80
2017-06-22T04:12:13.444Z,61.60
2017-06-22T04:14:41.075Z,60.10
2017-06-22T04:17:09.483Z,58.80
2017-06-22T04:19:37.125Z,58.10
2017-06-22T04:22:05.066Z,58.30
2017-06-22T04:24:32.704Z,59.90
2017-06-22T04:27:00.346Z,58.20
2017-06-22T04:29:28.138Z,57.70
2017-06-22T04:31:56.601Z,58.00
2017-06-22T04:34:24.552Z,58.00
2017-06-22T04:36:52.185Z,56.40
2017-06-22T04:39:20.236Z,55.50
2017-06-22T04:41:47.899Z,55.20
2017-06-22T04:44:16.072Z,55.40
2017-06-22T04:46:44.091Z,54.40
2017-06-22T04:49:11.724Z,52.40
2017-06-22T04:51:39.357Z,52.00
2017-06-22T04:54:07.793Z,53.30
2017-06-22T04:56:35.424Z,53.10
2017-06-22T04:59:03.324Z,51.40
2017-06-22T05:01:31.722Z,50.50
2017-06-22T05:03:59.346Z,50.50
2017-06-22T05:06:27.009Z,48.40
2017-06-22T05:08:54.640Z,45.30
2017-06-22T05:11:22.621Z,44.90
2017-06-22T05:13:50.256Z,44.00
2017-06-22T05:16:17.857Z,44.00
2017-06-22T05:18:45.491Z,43.40
2017-06-22T05:21:13.090Z,44.10
2017-06-22T05:23:41.767Z,41.60
2017-06-22T05:26:09.413Z,41.50
2017-06-22T05:28:37.799Z,40.20
2017-06-22T05:31:05.447Z,40.10
2017-06-22T05:33:33.050Z,38.00
2017-06-22T05:36:00.952Z,35.80
2017-06-22T05:38:28.569Z,35.90
2017-06-22T05:40:56.196Z,35.60
2017-06-22T05:43:24.608Z,36.50
2017-06-22T05:45:52.228Z,35.80
2017-06-22T05:48:20.177Z,35.40
2017-06-22T05:50:48.565Z,34.70
2017-06-22T05:53:16.192Z,34.60
2017-06-22T05:55:43.835Z,34.10
2017-06-22T05:58:11.438Z,34.10
2017-06-22T06:00:39.327Z,34.60
2017-06-22T06:03:06.961Z,33.90
2017-06-22T06:05:35.340Z,31.80
2017-06-22T06:08:03.745Z,31.00
2017-06-22T06:10:31.364Z,30.80
2017-06-22T06:12:59.308Z,29.40
2017-06-22T06:15:26.913Z,29.10
2017-06-22T06:17:54.510Z,26.80
2017-06-22T06:20:22.153Z,24.90
2017-06-22T06:22:49.769Z,23.40
2017-06-22T06:25:17.761Z,23.20
2017-06-22T06:27:45.367Z,21.50
2017-06-22T06:30:13.727Z,24.10
2017-06-22T06:32:41.369Z,23.50
2017-06-22T06:35:08.980Z,21.80
2017-06-22T06:37:36.914Z,21.80
2017-06-22T06:40:04.528Z,21.20
2017-06-22T06:42:32.907Z,19.10
2017-06-22T06:45:00.552Z,19.10
2017-06-22T06:47:28.921Z,19.10
2017-06-22T06:49:59.218Z,19.40
2017-06-22T06:52:26.820Z,19.30
2017-06-22T06:54:54.447Z,19.50
2017-06-22T06:57:22.075Z,19.30
2017-06-22T06:59:49.710Z,19.10
2017-06-22T07:02:18.371Z,18.80
2017-06-22T07:04:46.748Z,19.80
2017-06-22T07:07:14.349Z,19.80
2017-06-22T07:09:41.993Z,19.30
2017-06-22T07:12:09.592Z,20.60
2017-06-22T07:14:37.550Z,21.00
2017-06-22T07:17:05.165Z,19.00
2017-06-22T07:19:33.537Z,18.60
2017-06-22T07:22:01.942Z,18.50
2017-06-22T07:24:29.547Z,18.50
2017-06-22T07:26:58.340Z,18.60
2017-06-22T07:29:25.945Z,18.50
2017-06-22T07:31:54.327Z,18.70
2017-06-22T07:34:22.729Z,18.80
2017-06-22T07:36:50.345Z,18.80
2017-06-22T07:39:18.301Z,18.10
2017-06-22T07:41:45.920Z,18.70
2017-06-22T07:44:13.547Z,17.80
2017-06-22T07:46:41.193Z,18.40
2017-06-22T07:49:08.800Z,17.80
2017-06-22T07:51:36.748Z,18.40
2017-06-22T07:54:04.354Z,17.70
2017-06-22T07:56:31.962Z,17.60
2017-06-22T07:58:59.620Z,17.50
2017-06-22T08:01:27.277Z,18.10
2017-06-22T08:03:55.180Z,17.60
2017-06-22T08:06:22.808Z,16.80
2017-06-22T08:08:51.187Z,17.00
2017-06-22T08:11:19.594Z,17.50
2017-06-22T08:13:47.203Z,17.40
2017-06-22T08:16:15.155Z,18.70
2017-06-22T08:18:42.891Z,17.00
2017-06-22T08:21:11.263Z,17.40
2017-06-22T08:23:38.912Z,17.40
2017-06-22T08:26:06.559Z,18.10
2017-06-22T08:28:34.528Z,18.40
2017-06-22T08:31:02.137Z,17.90
2017-06-22T08:33:30.506Z,17.00
2017-06-22T08:35:58.908Z,17.60
2017-06-22T08:38:26.510Z,17.60
2017-06-22T08:40:54.603Z,16.10
2017-06-22T08:43:22.220Z,16.80
2017-06-22T08:45:50.612Z,16.10
2017-06-22T08:48:18.234Z,16.00
2017-06-22T08:50:46.592Z,15.80
2017-06-22T08:53:15.288Z,15.80
2017-06-22T08:55:42.906Z,15.80
2017-06-22T08:58:11.279Z,17.40
2017-06-22T09:00:39.696Z,16.80
2017-06-22T09:03:07.294Z,16.70
2017-06-22T09:05:35.261Z,17.30
2017-06-22T09:08:02.867Z,18.20
2017-06-22T09:10:30.472Z,17.60
2017-06-22T09:12:58.120Z,17.70
2017-06-22T09:15:25.722Z,16.70
2017-06-22T09:17:54.408Z,17.50
2017-06-22T09:20:22.016Z,17.40
2017-06-22T09:22:49.655Z,17.30
2017-06-22T09:25:17.294Z,16.40
2017-06-22T09:27:44.902Z,16.10
2017-06-22T09:30:12.788Z,16.00
2017-06-22T09:32:40.405Z,17.10
2017-06-22T09:35:08.005Z,15.90
2017-06-22T09:37:36.424Z,16.30
2017-06-22T09:40:04.030Z,16.00
2017-06-22T09:42:32.711Z,15.60
2017-06-22T09:45:00.315Z,15.60
2017-06-22T09:47:27.918Z,14.10
2017-06-22T09:49:55.554Z,15.30
2017-06-22T09:52:23.155Z,14.50
2017-06-22T09:54:51.155Z,14.90
2017-06-22T09:57:18.761Z,14.90
2017-06-22T09:59:46.365Z,16.20
2017-06-22T10:02:14.008Z,16.20
2017-06-22T10:04:41.626Z,15.50
2017-06-22T10:07:09.549Z,14.40
2017-06-22T10:09:37.155Z,17.00
2017-06-22T10:12:04.752Z,17.70
2017-06-22T10:14:33.156Z,16.90
2017-06-22T10:17:00.774Z,16.20
2017-06-22T10:19:29.458Z,16.20
2017-06-22T10:21:57.058Z,16.20
2017-06-22T10:24:24.674Z,15.10
2017-06-22T10:26:52.312Z,15.90
2017-06-22T10:29:19.924Z,16.30
2017-06-22T10:31:48.611Z,14.60
2017-06-22T10:34:16.225Z,14.60
2017-06-22T10:36:43.837Z,15.10
2017-06-22T10:39:11.464Z,15.80
2017-06-22T10:41:39.059Z,15.60
2017-06-22T10:44:06.990Z,16.20
2017-06-22T10:46:34.604Z,16.60
2017-06-22T10:49:02.212Z,14.70
2017-06-22T10:51:29.852Z,15.20
2017-06-22T10:53:57.483Z,14.80
2017-06-22T10:56:25.379Z,16.10
2017-06-22T10:58:54.356Z,14.40
2017-06-22T11:01:22.770Z,15.30
2017-06-22T11:03:50.475Z,15.30
2017-06-22T11:06:18.095Z,15.30
2017-06-22T11:08:45.978Z,15.30
2017-06-22T11:11:13.579Z,14.80
2017-06-22T11:13:41.192Z,15.60
2017-06-22T11:16:08.851Z,14.00
2017-06-22T11:18:36.466Z,14.30
2017-06-22T11:21:04.420Z,15.50
2017-06-22T11:23:32.031Z,15.60
2017-06-22T11:26:00.396Z,17.00
2017-06-22T11:28:28.797Z,16.20
2017-06-22T11:30:56.404Z,16.50
2017-06-22T11:33:24.315Z,17.30
2017-06-22T11:35:51.919Z,17.30
2017-06-22T11:38:20.293Z,16.50
2017-06-22T11:40:47.939Z,16.50
2017-06-22T11:43:15.542Z,16.20
2017-06-22T11:45:43.549Z,16.10
2017-06-22T11:48:11.165Z,16.60
2017-06-22T11:50:39.539Z,16.50
2017-06-22T11:53:07.948Z,16.40
2017-06-22T11:55:35.558Z,16.40
2017-06-22T11:58:03.510Z,17.60
2017-06-22T12:00:31.124Z,18.40
2017-06-22T12:02:58.745Z,17.80
2017-06-22T12:05:26.380Z,17.80
2017-06-22T12:07:54.010Z,17.80
2017-06-22T12:10:21.970Z,18.10
2017-06-22T12:12:49.606Z,16.90
2017-06-22T12:15:17.221Z,17.00
2017-06-22T12:17:45.632Z,16.70
2017-06-22T12:20:13.241Z,16.50
2017-06-22T12:22:41.234Z,16.50
2017-06-22T12:25:08.843Z,17.00
2017-06-22T12:27:36.452Z,17.30
2017-06-22T12:30:04.091Z,17.20
2017-06-22T12:32:31.691Z,17.70
2017-06-22T12:34:59.660Z,18.60
2017-06-22T12:37:27.269Z,17.30
2017-06-22T12:39:55.631Z,17.40
2017-06-22T12:42:24.061Z,18.00
2017-06-22T12:44:51.672Z,18.00
2017-06-22T12:47:19.626Z,17.90
2017-06-22T12:49:47.289Z,17.20
2017-06-22T12:52:14.902Z,18.20
2017-06-22T12:54:43.304Z,18.50
2017-06-22T12:57:10.930Z,18.50
2017-06-22T12:59:38.807Z,18.30
2017-06-22T13:02:06.413Z,18.20
2017-06-22T13:04:34.029Z,17.40
2017-06-22T13:07:01.759Z,18.70
2017-06-22T13:09:29.364Z,19.00
2017-06-22T13:11:57.326Z,18.40
2017-06-22T13:14:24.954Z,18.70
2017-06-22T13:16:52.560Z,18.10
2017-06-22T13:19:20.206Z,18.10
2017-06-22T13:21:47.809Z,18.50
2017-06-22T13:24:15.739Z,18.60
2017-06-22T13:26:44.130Z,19.10
2017-06-22T13:29:11.736Z,19.10
2017-06-22T13:31:39.363Z,19.40
2017-06-22T13:34:06.974Z,19.20
2017-06-22T13:36:34.610Z,19.00
2017-06-22T13:39:02.249Z,19.40
2017-06-22T13:41:29.880Z,19.30
2017-06-22T13:43:57.540Z,19.60
2017-06-22T13:46:25.174Z,19.50
2017-06-22T13:48:53.566Z,19.40
2017-06-22T13:51:21.217Z,19.30
2017-06-22T13:53:48.820Z,19.40
2017-06-22T13:56:17.560Z,19.40
2017-06-22T13:58:45.252Z,19.40
2017-06-22T14:01:13.650Z,19.30
2017-06-22T14:03:41.299Z,19.30
2017-06-22T14:06:08.886Z,19.70
2017-06-22T14:08:36.496Z,20.20
2017-06-22T14:11:04.142Z,19.70
2017-06-22T14:13:31.739Z,20.00
2017-06-22T14:16:00.108Z,20.00
2017-06-22T14:18:27.755Z,20.00
2017-06-22T14:20:55.348Z,20.40
2017-06-22T14:23:22.963Z,21.40
2017-06-22T14:25:50.883Z,20.30
2017-06-22T14:28:19.256Z,23.00
2017-06-22T14:30:47.614Z,21.90
2017-06-22T14:33:16.012Z,22.80
2017-06-22T14:35:43.626Z,22.50
2017-06-22T14:38:11.233Z,22.60
2017-06-22T14:40:38.907Z,23.40
2017-06-22T14:43:06.513Z,23.50
2017-06-22T14:45:34.147Z,24.30
2017-06-22T14:48:01.753Z,24.60
2017-06-22T14:50:30.157Z,24.00
2017-06-22T14:52:57.773Z,23.40
2017-06-22T14:55:26.177Z,27.80
2017-06-22T14:57:53.789Z,27.80
2017-06-22T15:00:21.441Z,30.80
2017-06-22T15:02:49.047Z,33.70
2017-06-22T15:05:16.697Z,36.30
2017-06-22T15:07:44.333Z,41.30
2017-06-22T15:10:12.220Z,46.60
2017-06-22T15:12:39.823Z,49.30
2017-06-22T15:15:07.445Z,50.70
2017-06-22T15:17:35.086Z,53.70
2017-06-22T15:20:02.765Z,53.60
2017-06-22T15:22:30.675Z,56.20
2017-06-22T15:24:58.287Z,57.20
2017-06-22T15:27:25.896Z,60.10
2017-06-22T15:29:53.551Z,57.90
2017-06-22T15:32:21.147Z,57.70
2017-06-22T15:34:49.102Z,56.40
2017-06-22T15:37:16.829Z,55.70
2017-06-22T15:39:45.201Z,54.90
2017-06-22T15:42:13.632Z,54.10
2017-06-22T15:44:41.241Z,54.10
2017-06-22T15:47:09.191Z,54.20
2017-06-22T15:49:36.860Z,55.30
2017-06-22T15:52:04.463Z,55.00
2017-06-22T15:54:32.863Z,54.10
2017-06-22T15:57:00.476Z,54.00
2017-06-22T15:59:28.442Z,53.80
2017-06-22T16:01:56.102Z,53.60
2017-06-22T16:04:23.757Z,52.80
2017-06-22T16:06:51.400Z,51.60
2017-06-22T16:09:19.003Z,52.30
2017-06-22T16:11:46.904Z,52.00
2017-06-22T16:14:14.519Z,52.10
2017-06-22T16:16:42.145Z,52.20
2017-06-22T16:19:10.547Z,52.10
2017-06-22T16:21:38.168Z,51.80
2017-06-22T16:24:06.147Z,50.90
2017-06-22T16:26:34.246Z,50.80
2017-06-22T16:29:01.843Z,50.70
2017-06-22T16:31:29.529Z,50.60
2017-06-22T16:33:57.126Z,49.90
2017-06-22T16:36:25.019Z,49.60
2017-06-22T16:38:52.633Z,49.50
2017-06-22T16:41:20.227Z,49.80
2017-06-22T16:43:47.875Z,49.40
2017-06-22T16:46:15.489Z,49.10
2017-06-22T16:48:43.415Z,49.10
2017-06-22T16:51:11.089Z,49.20
2017-06-22T16:53:38.706Z,48.80
2017-06-22T16:56:06.365Z,49.50
2017-06-22T16:58:33.975Z,49.00
2017-06-22T17:01:01.956Z,49.30
2017-06-22T17:03:29.555Z,50.20
2017-06-22T17:05:57.152Z,50.50
2017-06-22T17:08:24.843Z,50.70
2017-06-22T17:10:52.464Z,51.20
2017-06-22T17:13:20.393Z,50.60
2017-06-22T17:15:48.003Z,50.80
2017-06-22T17:18:15.611Z,51.10
2017-06-22T17:20:43.412Z,52.80
2017-06-22T17:23:11.791Z,54.90
2017-06-22T17:25:39.686Z,54.80
2017-06-22T17:28:07.303Z,59.10
2017-06-22T17:30:34.954Z,60.70
2017-06-22T17:33:02.641Z,67.80
2017-06-22T17:35:30.262Z,69.30
2017-06-22T17:37:58.297Z,72.90
2017-06-22T17:40:25.933Z,76.50
2017-06-22T17:42:53.577Z,74.30
2017-06-22T17:45:21.218Z,78.30
2017-06-22T17:47:49.599Z,82.90
2017-06-22T17:50:17.560Z,82.80
2017-06-22T17:52:45.224Z,85.00
2017-06-22T17:55:13.019Z,85.70
2017-06-22T17:57:40.669Z,81.60
2017-06-22T18:00:09.068Z,83.80
2017-06-22T18:02:37.007Z,83.70
2017-06-22T18:05:04.632Z,84.20
2017-06-22T18:07:33.006Z,83.30
2017-06-22T18:10:01.418Z,86.90
2017-06-22T18:12:29.098Z,86.90
2017-06-22T18:14:58.116Z,88.40
2017-06-22T18:17:25.742Z,88.30
2017-06-22T18:19:53.396Z,89.50
2017-06-22T18:22:21.057Z,94.30
2017-06-22T18:24:48.688Z,98.90
2017-06-22T18:27:16.645Z,99.90
2017-06-22T18:29:44.267Z,99.90
2017-06-22T18:32:13.550Z,99.90
2017-06-22T18:34:41.231Z,99.90
2017-06-22T18:37:08.859Z,99.90
2017-06-22T18:39:36.888Z,99.90
2017-06-22T18:42:06.741Z,99.90
2017-06-22T18:44:34.403Z,99.90
2017-06-22T18:47:02.072Z,99.90
2017-06-22T18:49:30.463Z,99.90
2017-06-22T18:51:58.511Z,99.90
2017-06-22T18:54:26.876Z,99.90
2017-06-22T18:56:54.563Z,99.90
2017-06-22T18:59:22.288Z,99.90
2017-06-22T19:01:49.919Z,99.90
2017-06-22T19:04:17.869Z,99.90
2017-06-22T19:06:45.508Z,99.90
2017-06-22T19:09:13.243Z,99.90
2017-06-22T19:11:40.918Z,99.90
2017-06-22T19:14:08.593Z,99.90
2017-06-22T19:16:36.545Z,99.90
2017-06-22T19:19:04.180Z,99.90
2017-06-22T19:21:31.835Z,99.90
2017-06-22T19:23:59.539Z,99.90
2017-06-22T19:26:27.945Z,99.90
2017-06-22T19:28:56.037Z,99.90
2017-06-22T19:31:23.707Z,99.90
2017-06-22T19:33:51.337Z,99.90
2017-06-22T19:36:18.994Z,99.90
2017-06-22T19:38:47.399Z,99.90
2017-06-22T19:41:15.347Z,99.90
2017-06-22T19:43:43.019Z,99.90
2017-06-22T19:46:10.672Z,99.90
2017-06-22T19:48:38.333Z,99.90
2017-06-22T19:51:06.014Z,99.90
2017-06-22T19:53:34.728Z,99.90
2017-06-22T19:56:02.369Z,99.90
2017-06-22T19:58:30.003Z,99.90
2017-06-22T20:00:57.661Z,99.90
2017-06-22T20:03:25.293Z,99.90
2017-06-22T20:05:53.735Z,99.90
2017-06-22T20:08:22.256Z,99.90
2017-06-22T20:10:49.880Z,99.90
2017-06-22T20:13:17.556Z,99.90
2017-06-22T20:15:45.197Z,99.90
2017-06-22T20:18:13.161Z,99.90
2017-06-22T20:20:40.803Z,99.90
2017-06-22T20:23:08.799Z,99.90
2017-06-22T20:25:36.504Z,99.90
2017-06-22T20:28:04.150Z,99.90
2017-06-22T20:30:32.105Z,99.90
2017-06-22T20:32:59.740Z,99.90
2017-06-22T20:35:27.379Z,99.90
2017-06-22T20:37:55.046Z,99.90
2017-06-22T20:40:22.685Z,99.90
2017-06-22T20:42:50.618Z,99.90
2017-06-22T20:45:18.256Z,99.90
2017-06-22T20:47:45.963Z,99.90
2017-06-22T20:50:14.399Z,99.90
2017-06-22T20:52:42.045Z,99.90
2017-06-22T20:55:10.000Z,99.90
2017-06-22T20:57:37.645Z,99.90
2017-06-22T21:00:05.271Z,99.90
2017-06-22T21:02:32.970Z,99.90
2017-06-22T21:05:01.378Z,99.90
2017-06-22T21:07:29.349Z,99.90
2017-06-22T21:09:56.984Z,99.90
2017-06-22T21:12:24.611Z,99.90
2017-06-22T21:14:52.593Z,99.90
2017-06-22T21:17:20.248Z,99.90
2017-06-22T21:19:47.879Z,99.90
2017-06-22T21:22:15.560Z,98.70
2017-06-22T21:24:43.198Z,99.00
2017-06-22T21:27:10.860Z,99.60
2017-06-22T21:29:38.488Z,99.90
2017-06-22T21:32:06.528Z,99.90
2017-06-22T21:34:34.169Z,99.90
2017-06-22T21:37:01.814Z,99.90
2017-06-22T21:39:29.482Z,99.90
2017-06-22T21:41:57.127Z,99.90
2017-06-22T21:44:24.795Z,99.90
2017-06-22T21:46:52.437Z,99.90
2017-06-22T21:49:20.396Z,99.90
2017-06-22T21:51:48.040Z,99.90
2017-06-22T21:54:15.667Z,99.90
2017-06-22T21:56:43.352Z,99.90
2017-06-22T21:59:11.779Z,99.90
2017-06-22T22:01:39.448Z,99.90
2017-06-22T22:04:07.090Z,99.90
2017-06-22T22:06:36.449Z,99.90
2017-06-22T22:09:04.089Z,99.90
2017-06-22T22:11:31.728Z,99.90
2017-06-22T22:13:59.392Z,99.90
2017-06-22T22:16:27.026Z,99.90
2017-06-22T22:18:54.698Z,99.90
2017-06-22T22:21:22.328Z,99.90
2017-06-22T22:23:50.281Z,99.90
2017-06-22T22:26:17.948Z,99.90
2017-06-22T22:28:45.605Z,99.90
2017-06-22T22:31:13.289Z,99.90
2017-06-22T22:33:40.933Z,99.90
2017-06-22T22:36:08.607Z,99.90
2017-06-22T22:38:36.248Z,99.90
2017-06-22T22:41:03.933Z,99.90
2017-06-22T22:43:31.694Z,99.90
2017-06-22T22:45:59.337Z,99.90
2017-06-22T22:48:27.094Z,99.90
2017-06-22T22:50:54.769Z,99.90
2017-06-22T22:53:22.726Z,99.90
2017-06-22T22:55:50.397Z,99.90
2017-06-22T22:58:18.045Z,99.90
2017-06-22T23:00:45.725Z,99.90
2017-06-22T23:03:13.368Z,99.90
2017-06-22T23:05:41.054Z,99.90
2017-06-22T23:08:08.703Z,99.90
2017-06-22T23:10:36.669Z,99.90
2017-06-22T23:13:04.316Z,99.90
2017-06-22T23:15:31.960Z,99.90
2017-06-22T23:17:59.640Z,99.90
2017-06-22T23:20:27.277Z,99.90
2017-06-22T23:22:54.962Z,99.90
2017-06-22T23:25:22.608Z,99.90
2017-06-22T23:27:50.551Z,99.90
2017-06-22T23:30:18.179Z,99.90
2017-06-22T23:32:45.812Z,99.90
2017-06-22T23:35:13.481Z,99.90
2017-06-22T23:37:41.134Z,99.90
2017-06-22T23:40:08.806Z,99.90
2017-06-22T23:42:37.213Z,99.90
2017-06-22T23:45:05.137Z,99.90
2017-06-22T23:47:32.780Z,99.90
2017-06-22T23:50:01.193Z,99.90
2017-06-22T23:52:28.876Z,99.90
2017-06-22T23:54:57.273Z,99.90
2017-06-22T23:57:24.957Z,99.90
2017-06-22T23:59:52.644Z,99.90
